sensor_id;sensor_type;location;lat;lon;timestamp;P1;durP1;ratioP1;P2;durP2;ratioP2
23242;SDS011;11790;49.578;11.214;2023-10-19T00:02:32;43.92;;;24.83;;
23242;SDS011;11790;49.578;11.214;2023-10-19T00:07:32;42.05;;;24.17;;
23242;SDS011;11790;49.578;11.214;2023-10-19T00:12:33;42.28;;;25.63;;
23242;SDS011;11790;49.578;11.214;2023-10-19T00:17:33;45.23;;;25.57;;
23242;SDS011;11790;49.578;11.214;2023-10-19T00:22:33;42.67;;;25.60;;
23242;SDS011;11790;49.578;11.214;2023-10-19T00:27:36;41.78;;;24.48;;
23242;SDS011;11790;49.578;11.214;2023-10-19T00:32:36;43.80;;;26.27;;
23242;SDS011;11790;49.578;11.214;2023-10-19T00:37:38;43.42;;;25.60;;
23242;SDS011;11790;49.578;11.214;2023-10-19T00:42:42;41.35;;;24.70;;
23242;SDS011;11790;49.578;11.214;2023-10-19T00:47:46;41.65;;;25.58;;
23242;SDS011;11790;49.578;11.214;2023-10-19T00:52:46;42.63;;;25.30;;
23242;SDS011;11790;49.578;11.214;2023-10-19T00:57:49;40.85;;;25.23;;
23242;SDS011;11790;49.578;11.214;2023-10-19T01:02:50;42.97;;;25.45;;
23242;SDS011;11790;49.578;11.214;2023-10-19T01:07:52;44.00;;;25.60;;
23242;SDS011;11790;49.578;11.214;2023-10-19T01:12:57;43.78;;;27.23;;
23242;SDS011;11790;49.578;11.214;2023-10-19T01:17:59;44.25;;;26.05;;
23242;SDS011;11790;49.578;11.214;2023-10-19T01:23:05;45.83;;;26.13;;
23242;SDS011;11790;49.578;11.214;2023-10-19T01:28:10;46.67;;;25.77;;
23242;SDS011;11790;49.578;11.214;2023-10-19T01:33:11;40.65;;;24.15;;
23242;SDS011;11790;49.578;11.214;2023-10-19T01:38:15;41.72;;;25.25;;
23242;SDS011;11790;49.578;11.214;2023-10-19T01:43:15;40.72;;;25.85;;
23242;SDS011;11790;49.578;11.214;2023-10-19T01:48:22;40.20;;;24.50;;
23242;SDS011;11790;49.578;11.214;2023-10-19T01:53:33;40.38;;;24.58;;
23242;SDS011;11790;49.578;11.214;2023-10-19T01:58:36;40.22;;;23.85;;
23242;SDS011;11790;49.578;11.214;2023-10-19T02:03:37;42.13;;;26.52;;
23242;SDS011;11790;49.578;11.214;2023-10-19T02:08:43;40.35;;;24.90;;
23242;SDS011;11790;49.578;11.214;2023-10-19T02:13:44;44.60;;;25.20;;
23242;SDS011;11790;49.578;11.214;2023-10-19T02:18:46;39.55;;;24.63;;
23242;SDS011;11790;49.578;11.214;2023-10-19T02:23:46;41.00;;;25.48;;
23242;SDS011;11790;49.578;11.214;2023-10-19T02:28:47;40.83;;;25.35;;
23242;SDS011;11790;49.578;11.214;2023-10-19T02:33:50;44.80;;;25.93;;
23242;SDS011;11790;49.578;11.214;2023-10-19T02:39:00;42.75;;;26.40;;
23242;SDS011;11790;49.578;11.214;2023-10-19T02:44:14;43.40;;;26.05;;
23242;SDS011;11790;49.578;11.214;2023-10-19T02:49:17;47.75;;;27.38;;
23242;SDS011;11790;49.578;11.214;2023-10-19T02:54:22;40.08;;;24.60;;
23242;SDS011;11790;49.578;11.214;2023-10-19T02:59:23;43.80;;;25.45;;
23242;SDS011;11790;49.578;11.214;2023-10-19T03:04:23;41.60;;;25.17;;
23242;SDS011;11790;49.578;11.214;2023-10-19T03:09:25;46.85;;;25.92;;
23242;SDS011;11790;49.578;11.214;2023-10-19T03:14:30;40.35;;;23.98;;
23242;SDS011;11790;49.578;11.214;2023-10-19T03:19:30;39.30;;;23.65;;
23242;SDS011;11790;49.578;11.214;2023-10-19T03:24:31;37.60;;;24.48;;
23242;SDS011;11790;49.578;11.214;2023-10-19T03:29:44;39.42;;;25.27;;
23242;SDS011;11790;49.578;11.214;2023-10-19T03:34:55;39.67;;;24.65;;
23242;SDS011;11790;49.578;11.214;2023-10-19T03:39:55;43.58;;;26.83;;
23242;SDS011;11790;49.578;11.214;2023-10-19T03:44:56;43.72;;;26.48;;
23242;SDS011;11790;49.578;11.214;2023-10-19T03:49:57;41.58;;;25.05;;
23242;SDS011;11790;49.578;11.214;2023-10-19T03:55:00;45.55;;;25.63;;
23242;SDS011;11790;49.578;11.214;2023-10-19T04:00:00;42.20;;;25.90;;
23242;SDS011;11790;49.578;11.214;2023-10-19T04:05:00;40.08;;;26.08;;
23242;SDS011;11790;49.578;11.214;2023-10-19T04:10:03;43.60;;;25.65;;
23242;SDS011;11790;49.578;11.214;2023-10-19T04:15:09;41.13;;;25.30;;
23242;SDS011;11790;49.578;11.214;2023-10-19T04:20:17;39.95;;;25.25;;
23242;SDS011;11790;49.578;11.214;2023-10-19T04:25:18;38.80;;;24.60;;
23242;SDS011;11790;49.578;11.214;2023-10-19T04:30:25;42.47;;;25.13;;
23242;SDS011;11790;49.578;11.214;2023-10-19T04:35:26;44.67;;;27.08;;
23242;SDS011;11790;49.578;11.214;2023-10-19T04:40:30;45.80;;;27.25;;
23242;SDS011;11790;49.578;11.214;2023-10-19T04:45:30;39.20;;;25.08;;
23242;SDS011;11790;49.578;11.214;2023-10-19T04:50:30;39.33;;;25.90;;
23242;SDS011;11790;49.578;11.214;2023-10-19T04:55:30;42.08;;;26.15;;
23242;SDS011;11790;49.578;11.214;2023-10-19T05:00:30;48.55;;;26.88;;
23242;SDS011;11790;49.578;11.214;2023-10-19T05:05:33;44.35;;;26.05;;
23242;SDS011;11790;49.578;11.214;2023-10-19T05:10:35;44.65;;;26.33;;
23242;SDS011;11790;49.578;11.214;2023-10-19T05:15:36;44.75;;;28.67;;
23242;SDS011;11790;49.578;11.214;2023-10-19T05:20:36;44.25;;;27.02;;
23242;SDS011;11790;49.578;11.214;2023-10-19T05:25:40;42.53;;;28.27;;
23242;SDS011;11790;49.578;11.214;2023-10-19T05:30:40;47.38;;;28.50;;
23242;SDS011;11790;49.578;11.214;2023-10-19T05:35:40;46.05;;;28.55;;
23242;SDS011;11790;49.578;11.214;2023-10-19T05:40:41;45.55;;;27.73;;
23242;SDS011;11790;49.578;11.214;2023-10-19T05:45:43;45.65;;;26.60;;
23242;SDS011;11790;49.578;11.214;2023-10-19T05:50:43;47.97;;;28.77;;
23242;SDS011;11790;49.578;11.214;2023-10-19T05:55:44;45.20;;;28.35;;
23242;SDS011;11790;49.578;11.214;2023-10-19T06:00:44;44.97;;;28.17;;
23242;SDS011;11790;49.578;11.214;2023-10-19T06:05:44;47.28;;;27.95;;
23242;SDS011;11790;49.578;11.214;2023-10-19T06:10:48;45.20;;;28.30;;
23242;SDS011;11790;49.578;11.214;2023-10-19T06:15:50;49.20;;;29.42;;
23242;SDS011;11790;49.578;11.214;2023-10-19T06:20:51;47.92;;;28.58;;
23242;SDS011;11790;49.578;11.214;2023-10-19T06:25:54;44.38;;;28.05;;
23242;SDS011;11790;49.578;11.214;2023-10-19T06:30:55;44.47;;;27.85;;
23242;SDS011;11790;49.578;11.214;2023-10-19T06:35:55;43.33;;;27.15;;
23242;SDS011;11790;49.578;11.214;2023-10-19T06:40:55;45.28;;;27.98;;
23242;SDS011;11790;49.578;11.214;2023-10-19T06:45:56;49.25;;;29.02;;
23242;SDS011;11790;49.578;11.214;2023-10-19T06:50:56;52.05;;;29.98;;
23242;SDS011;11790;49.578;11.214;2023-10-19T06:55:56;49.67;;;30.02;;
23242;SDS011;11790;49.578;11.214;2023-10-19T07:00:56;45.10;;;28.38;;
23242;SDS011;11790;49.578;11.214;2023-10-19T07:05:56;43.80;;;28.25;;
23242;SDS011;11790;49.578;11.214;2023-10-19T07:10:58;47.47;;;29.13;;
23242;SDS011;11790;49.578;11.214;2023-10-19T07:15:58;43.10;;;26.27;;
23242;SDS011;11790;49.578;11.214;2023-10-19T07:20:58;41.40;;;26.20;;
23242;SDS011;11790;49.578;11.214;2023-10-19T07:26:05;42.95;;;26.25;;
23242;SDS011;11790;49.578;11.214;2023-10-19T07:31:06;36.97;;;24.60;;
23242;SDS011;11790;49.578;11.214;2023-10-19T07:36:15;40.92;;;26.05;;
23242;SDS011;11790;49.578;11.214;2023-10-19T07:41:15;44.03;;;26.88;;
23242;SDS011;11790;49.578;11.214;2023-10-19T07:46:15;40.33;;;25.42;;
23242;SDS011;11790;49.578;11.214;2023-10-19T07:51:15;42.83;;;27.80;;
23242;SDS011;11790;49.578;11.214;2023-10-19T07:56:16;42.33;;;26.35;;
23242;SDS011;11790;49.578;11.214;2023-10-19T08:01:16;37.25;;;24.38;;
23242;SDS011;11790;49.578;11.214;2023-10-19T08:06:16;36.92;;;24.38;;
23242;SDS011;11790;49.578;11.214;2023-10-19T08:11:16;35.63;;;23.50;;
23242;SDS011;11790;49.578;11.214;2023-10-19T08:16:16;37.10;;;24.67;;
23242;SDS011;11790;49.578;11.214;2023-10-19T08:21:16;33.33;;;23.80;;
23242;SDS011;11790;49.578;11.214;2023-10-19T08:26:17;35.45;;;24.85;;
23242;SDS011;11790;49.578;11.214;2023-10-19T08:31:18;33.90;;;23.63;;
23242;SDS011;11790;49.578;11.214;2023-10-19T08:36:18;33.23;;;23.27;;
23242;SDS011;11790;49.578;11.214;2023-10-19T08:41:21;33.78;;;23.83;;
23242;SDS011;11790;49.578;11.214;2023-10-19T08:46:23;33.58;;;23.02;;
23242;SDS011;11790;49.578;11.214;2023-10-19T08:51:24;33.55;;;23.52;;
23242;SDS011;11790;49.578;11.214;2023-10-19T08:56:28;38.87;;;23.57;;
23242;SDS011;11790;49.578;11.214;2023-10-19T09:01:28;31.23;;;22.48;;
23242;SDS011;11790;49.578;11.214;2023-10-19T09:06:28;30.50;;;21.83;;
23242;SDS011;11790;49.578;11.214;2023-10-19T09:11:29;32.22;;;22.90;;
23242;SDS011;11790;49.578;11.214;2023-10-19T09:16:29;26.25;;;19.70;;
23242;SDS011;11790;49.578;11.214;2023-10-19T09:21:30;26.17;;;19.58;;
23242;SDS011;11790;49.578;11.214;2023-10-19T09:26:32;28.83;;;19.55;;
23242;SDS011;11790;49.578;11.214;2023-10-19T09:31:33;27.70;;;19.80;;
23242;SDS011;11790;49.578;11.214;2023-10-19T09:36:33;28.95;;;20.75;;
23242;SDS011;11790;49.578;11.214;2023-10-19T09:41:34;30.20;;;21.38;;
23242;SDS011;11790;49.578;11.214;2023-10-19T09:46:34;29.13;;;20.87;;
23242;SDS011;11790;49.578;11.214;2023-10-19T09:51:39;28.25;;;20.98;;
23242;SDS011;11790;49.578;11.214;2023-10-19T09:56:40;30.88;;;21.70;;
23242;SDS011;11790;49.578;11.214;2023-10-19T10:07:00;30.08;;;20.95;;
23242;SDS011;11790;49.578;11.214;2023-10-19T10:12:15;28.30;;;20.30;;
23242;SDS011;11790;49.578;11.214;2023-10-19T10:17:18;27.30;;;20.88;;
23242;SDS011;11790;49.578;11.214;2023-10-19T10:22:19;26.88;;;20.30;;
23242;SDS011;11790;49.578;11.214;2023-10-19T10:27:21;27.75;;;20.27;;
23242;SDS011;11790;49.578;11.214;2023-10-19T10:37:41;24.00;;;17.58;;
23242;SDS011;11790;49.578;11.214;2023-10-19T10:43:04;28.45;;;18.80;;
23242;SDS011;11790;49.578;11.214;2023-10-19T10:48:10;23.95;;;18.67;;
23242;SDS011;11790;49.578;11.214;2023-10-19T10:53:10;22.20;;;17.55;;
23242;SDS011;11790;49.578;11.214;2023-10-19T10:58:17;24.13;;;17.55;;
23242;SDS011;11790;49.578;11.214;2023-10-19T11:03:18;22.88;;;17.27;;
23242;SDS011;11790;49.578;11.214;2023-10-19T11:08:18;26.50;;;16.97;;
23242;SDS011;11790;49.578;11.214;2023-10-19T11:13:24;24.65;;;17.92;;
23242;SDS011;11790;49.578;11.214;2023-10-19T11:18:31;23.52;;;17.42;;
23242;SDS011;11790;49.578;11.214;2023-10-19T11:23:40;21.63;;;16.50;;
23242;SDS011;11790;49.578;11.214;2023-10-19T11:28:41;20.77;;;15.80;;
23242;SDS011;11790;49.578;11.214;2023-10-19T11:33:47;19.73;;;16.00;;
23242;SDS011;11790;49.578;11.214;2023-10-19T11:38:51;17.80;;;14.82;;
23242;SDS011;11790;49.578;11.214;2023-10-19T11:43:51;19.58;;;15.02;;
23242;SDS011;11790;49.578;11.214;2023-10-19T11:48:51;21.85;;;15.57;;
23242;SDS011;11790;49.578;11.214;2023-10-19T11:53:51;18.98;;;15.25;;
23242;SDS011;11790;49.578;11.214;2023-10-19T11:58:52;18.70;;;15.40;;
23242;SDS011;11790;49.578;11.214;2023-10-19T12:03:52;18.40;;;14.38;;
23242;SDS011;11790;49.578;11.214;2023-10-19T12:08:53;18.17;;;13.82;;
23242;SDS011;11790;49.578;11.214;2023-10-19T12:19:51;19.48;;;14.60;;
23242;SDS011;11790;49.578;11.214;2023-10-19T12:24:51;20.83;;;15.07;;
23242;SDS011;11790;49.578;11.214;2023-10-19T12:29:51;16.27;;;13.05;;
23242;SDS011;11790;49.578;11.214;2023-10-19T12:34:54;21.08;;;14.43;;
23242;SDS011;11790;49.578;11.214;2023-10-19T12:39:57;18.92;;;14.73;;
23242;SDS011;11790;49.578;11.214;2023-10-19T12:44:58;19.38;;;15.43;;
23242;SDS011;11790;49.578;11.214;2023-10-19T12:49:59;19.90;;;14.88;;
23242;SDS011;11790;49.578;11.214;2023-10-19T12:55:00;22.77;;;14.75;;
23242;SDS011;11790;49.578;11.214;2023-10-19T13:00:04;23.27;;;15.15;;
23242;SDS011;11790;49.578;11.214;2023-10-19T13:05:23;18.85;;;14.35;;
23242;SDS011;11790;49.578;11.214;2023-10-19T13:10:30;24.80;;;14.75;;
23242;SDS011;11790;49.578;11.214;2023-10-19T13:15:32;23.02;;;14.63;;
23242;SDS011;11790;49.578;11.214;2023-10-19T13:20:34;20.80;;;14.80;;
23242;SDS011;11790;49.578;11.214;2023-10-19T13:25:35;24.92;;;15.38;;
23242;SDS011;11790;49.578;11.214;2023-10-19T13:30:42;19.15;;;14.85;;
23242;SDS011;11790;49.578;11.214;2023-10-19T13:35:43;22.48;;;15.27;;
23242;SDS011;11790;49.578;11.214;2023-10-19T13:40:44;22.85;;;15.45;;
23242;SDS011;11790;49.578;11.214;2023-10-19T13:45:47;19.40;;;14.82;;
23242;SDS011;11790;49.578;11.214;2023-10-19T13:50:47;25.50;;;16.35;;
23242;SDS011;11790;49.578;11.214;2023-10-19T13:55:48;22.30;;;15.80;;
23242;SDS011;11790;49.578;11.214;2023-10-19T14:00:48;21.45;;;14.57;;
23242;SDS011;11790;49.578;11.214;2023-10-19T14:05:49;21.13;;;15.20;;
23242;SDS011;11790;49.578;11.214;2023-10-19T14:10:50;21.02;;;15.27;;
23242;SDS011;11790;49.578;11.214;2023-10-19T14:15:50;18.77;;;15.10;;
23242;SDS011;11790;49.578;11.214;2023-10-19T14:20:50;20.85;;;15.18;;
23242;SDS011;11790;49.578;11.214;2023-10-19T14:25:50;21.17;;;14.55;;
23242;SDS011;11790;49.578;11.214;2023-10-19T14:30:51;18.23;;;13.90;;
23242;SDS011;11790;49.578;11.214;2023-10-19T14:35:51;22.75;;;14.73;;
23242;SDS011;11790;49.578;11.214;2023-10-19T14:40:51;18.13;;;13.68;;
23242;SDS011;11790;49.578;11.214;2023-10-19T14:45:52;17.88;;;13.82;;
23242;SDS011;11790;49.578;11.214;2023-10-19T14:50:53;19.55;;;13.70;;
23242;SDS011;11790;49.578;11.214;2023-10-19T14:55:55;19.00;;;14.00;;
23242;SDS011;11790;49.578;11.214;2023-10-19T15:00:56;16.73;;;13.57;;
23242;SDS011;11790;49.578;11.214;2023-10-19T15:05:57;23.80;;;16.98;;
23242;SDS011;11790;49.578;11.214;2023-10-19T15:10:59;20.27;;;15.43;;
23242;SDS011;11790;49.578;11.214;2023-10-19T15:16:06;21.15;;;14.85;;
23242;SDS011;11790;49.578;11.214;2023-10-19T15:21:07;20.45;;;15.88;;
23242;SDS011;11790;49.578;11.214;2023-10-19T15:26:08;23.63;;;15.52;;
23242;SDS011;11790;49.578;11.214;2023-10-19T15:31:08;22.52;;;16.63;;
23242;SDS011;11790;49.578;11.214;2023-10-19T15:36:23;20.55;;;15.02;;
23242;SDS011;11790;49.578;11.214;2023-10-19T15:41:24;23.92;;;15.88;;
23242;SDS011;11790;49.578;11.214;2023-10-19T15:46:24;24.40;;;17.33;;
23242;SDS011;11790;49.578;11.214;2023-10-19T15:51:24;23.15;;;15.85;;
23242;SDS011;11790;49.578;11.214;2023-10-19T15:56:25;24.80;;;16.38;;
23242;SDS011;11790;49.578;11.214;2023-10-19T16:01:27;21.92;;;16.10;;
23242;SDS011;11790;49.578;11.214;2023-10-19T16:06:29;25.00;;;17.08;;
23242;SDS011;11790;49.578;11.214;2023-10-19T16:11:29;26.00;;;18.02;;
23242;SDS011;11790;49.578;11.214;2023-10-19T16:16:29;29.02;;;19.13;;
23242;SDS011;11790;49.578;11.214;2023-10-19T16:21:29;23.73;;;16.30;;
23242;SDS011;11790;49.578;11.214;2023-10-19T16:26:29;28.00;;;19.88;;
23242;SDS011;11790;49.578;11.214;2023-10-19T16:31:30;29.88;;;21.30;;
23242;SDS011;11790;49.578;11.214;2023-10-19T16:36:30;33.22;;;22.00;;
23242;SDS011;11790;49.578;11.214;2023-10-19T16:41:30;30.38;;;20.33;;
23242;SDS011;11790;49.578;11.214;2023-10-19T16:46:34;31.20;;;21.08;;
23242;SDS011;11790;49.578;11.214;2023-10-19T16:51:36;26.50;;;18.60;;
23242;SDS011;11790;49.578;11.214;2023-10-19T16:56:40;26.75;;;18.02;;
23242;SDS011;11790;49.578;11.214;2023-10-19T17:01:46;22.07;;;16.47;;
23242;SDS011;11790;49.578;11.214;2023-10-19T17:06:46;26.77;;;19.40;;
23242;SDS011;11790;49.578;11.214;2023-10-19T17:11:46;25.70;;;17.17;;
23242;SDS011;11790;49.578;11.214;2023-10-19T17:16:47;24.02;;;16.85;;
23242;SDS011;11790;49.578;11.214;2023-10-19T17:21:47;27.20;;;20.10;;
23242;SDS011;11790;49.578;11.214;2023-10-19T17:26:47;28.05;;;19.73;;
23242;SDS011;11790;49.578;11.214;2023-10-19T17:31:48;27.60;;;19.70;;
23242;SDS011;11790;49.578;11.214;2023-10-19T17:36:48;24.05;;;18.10;;
23242;SDS011;11790;49.578;11.214;2023-10-19T17:41:48;25.55;;;16.80;;
23242;SDS011;11790;49.578;11.214;2023-10-19T17:46:48;23.20;;;18.42;;
23242;SDS011;11790;49.578;11.214;2023-10-19T17:51:49;25.85;;;17.75;;
23242;SDS011;11790;49.578;11.214;2023-10-19T17:56:50;29.63;;;20.20;;
23242;SDS011;11790;49.578;11.214;2023-10-19T18:01:51;28.40;;;21.55;;
23242;SDS011;11790;49.578;11.214;2023-10-19T18:06:51;26.95;;;19.90;;
23242;SDS011;11790;49.578;11.214;2023-10-19T18:11:52;27.58;;;20.20;;
23242;SDS011;11790;49.578;11.214;2023-10-19T18:16:52;25.70;;;19.35;;
23242;SDS011;11790;49.578;11.214;2023-10-19T18:21:52;33.47;;;19.13;;
23242;SDS011;11790;49.578;11.214;2023-10-19T18:26:54;33.97;;;23.05;;
23242;SDS011;11790;49.578;11.214;2023-10-19T18:31:55;33.67;;;22.45;;
23242;SDS011;11790;49.578;11.214;2023-10-19T18:36:55;28.50;;;20.40;;
23242;SDS011;11790;49.578;11.214;2023-10-19T18:41:56;29.38;;;19.00;;
23242;SDS011;11790;49.578;11.214;2023-10-19T18:46:56;27.65;;;18.70;;
23242;SDS011;11790;49.578;11.214;2023-10-19T18:51:57;25.60;;;18.50;;
23242;SDS011;11790;49.578;11.214;2023-10-19T18:56:57;25.85;;;18.52;;
23242;SDS011;11790;49.578;11.214;2023-10-19T19:01:59;30.42;;;21.27;;
23242;SDS011;11790;49.578;11.214;2023-10-19T19:07:00;30.80;;;20.77;;
23242;SDS011;11790;49.578;11.214;2023-10-19T19:12:00;28.00;;;18.38;;
23242;SDS011;11790;49.578;11.214;2023-10-19T19:17:01;24.60;;;18.38;;
23242;SDS011;11790;49.578;11.214;2023-10-19T19:22:04;24.60;;;17.98;;
23242;SDS011;11790;49.578;11.214;2023-10-19T19:27:04;24.80;;;18.57;;
23242;SDS011;11790;49.578;11.214;2023-10-19T19:32:04;25.75;;;17.48;;
23242;SDS011;11790;49.578;11.214;2023-10-19T19:37:06;24.85;;;18.67;;
23242;SDS011;11790;49.578;11.214;2023-10-19T19:42:06;25.10;;;18.63;;
23242;SDS011;11790;49.578;11.214;2023-10-19T19:47:06;26.10;;;18.95;;
23242;SDS011;11790;49.578;11.214;2023-10-19T19:52:06;24.33;;;18.35;;
23242;SDS011;11790;49.578;11.214;2023-10-19T19:57:08;26.60;;;17.75;;
23242;SDS011;11790;49.578;11.214;2023-10-19T20:02:08;27.40;;;19.00;;
23242;SDS011;11790;49.578;11.214;2023-10-19T20:07:08;26.20;;;18.88;;
23242;SDS011;11790;49.578;11.214;2023-10-19T20:12:08;27.83;;;20.10;;
23242;SDS011;11790;49.578;11.214;2023-10-19T20:17:10;29.02;;;20.15;;
23242;SDS011;11790;49.578;11.214;2023-10-19T20:22:11;36.78;;;22.17;;
23242;SDS011;11790;49.578;11.214;2023-10-19T20:27:11;26.70;;;19.10;;
23242;SDS011;11790;49.578;11.214;2023-10-19T20:32:12;33.95;;;22.05;;
23242;SDS011;11790;49.578;11.214;2023-10-19T20:37:13;32.72;;;22.10;;
23242;SDS011;11790;49.578;11.214;2023-10-19T20:42:14;30.77;;;19.35;;
23242;SDS011;11790;49.578;11.214;2023-10-19T20:47:14;27.48;;;18.98;;
23242;SDS011;11790;49.578;11.214;2023-10-19T20:52:14;26.13;;;18.37;;
23242;SDS011;11790;49.578;11.214;2023-10-19T20:57:15;25.80;;;18.67;;
23242;SDS011;11790;49.578;11.214;2023-10-19T21:02:15;26.80;;;19.05;;
23242;SDS011;11790;49.578;11.214;2023-10-19T21:07:16;31.40;;;21.27;;
23242;SDS011;11790;49.578;11.214;2023-10-19T21:12:19;25.45;;;18.17;;
23242;SDS011;11790;49.578;11.214;2023-10-19T21:17:19;24.30;;;17.45;;
23242;SDS011;11790;49.578;11.214;2023-10-19T21:22:19;25.25;;;17.70;;
23242;SDS011;11790;49.578;11.214;2023-10-19T21:27:19;25.77;;;18.75;;
23242;SDS011;11790;49.578;11.214;2023-10-19T21:32:19;27.58;;;19.67;;
23242;SDS011;11790;49.578;11.214;2023-10-19T21:37:20;26.10;;;17.73;;
23242;SDS011;11790;49.578;11.214;2023-10-19T21:42:22;30.13;;;20.80;;
23242;SDS011;11790;49.578;11.214;2023-10-19T21:47:23;33.40;;;21.13;;
23242;SDS011;11790;49.578;11.214;2023-10-19T21:52:23;32.40;;;22.17;;
23242;SDS011;11790;49.578;11.214;2023-10-19T21:57:24;28.45;;;20.52;;
23242;SDS011;11790;49.578;11.214;2023-10-19T22:02:25;25.95;;;18.67;;
23242;SDS011;11790;49.578;11.214;2023-10-19T22:07:25;28.80;;;20.38;;
23242;SDS011;11790;49.578;11.214;2023-10-19T22:12:25;29.13;;;19.15;;
23242;SDS011;11790;49.578;11.214;2023-10-19T22:17:26;30.52;;;19.15;;
23242;SDS011;11790;49.578;11.214;2023-10-19T22:22:26;25.17;;;18.42;;
23242;SDS011;11790;49.578;11.214;2023-10-19T22:27:27;26.70;;;18.23;;
23242;SDS011;11790;49.578;11.214;2023-10-19T22:32:27;28.65;;;18.95;;
23242;SDS011;11790;49.578;11.214;2023-10-19T22:37:27;26.27;;;17.60;;
23242;SDS011;11790;49.578;11.214;2023-10-19T22:42:28;24.42;;;17.75;;
23242;SDS011;11790;49.578;11.214;2023-10-19T22:47:28;24.83;;;16.02;;
23242;SDS011;11790;49.578;11.214;2023-10-19T22:52:29;25.55;;;16.52;;
23242;SDS011;11790;49.578;11.214;2023-10-19T22:57:31;24.30;;;16.35;;
23242;SDS011;11790;49.578;11.214;2023-10-19T23:02:31;20.55;;;15.23;;
23242;SDS011;11790;49.578;11.214;2023-10-19T23:07:31;22.38;;;16.30;;
23242;SDS011;11790;49.578;11.214;2023-10-19T23:12:32;24.95;;;15.15;;
23242;SDS011;11790;49.578;11.214;2023-10-19T23:17:33;24.85;;;15.63;;
23242;SDS011;11790;49.578;11.214;2023-10-19T23:22:33;23.13;;;15.13;;
23242;SDS011;11790;49.578;11.214;2023-10-19T23:27:35;22.85;;;14.48;;
23242;SDS011;11790;49.578;11.214;2023-10-19T23:32:37;20.42;;;14.70;;
23242;SDS011;11790;49.578;11.214;2023-10-19T23:37:39;21.23;;;15.32;;
23242;SDS011;11790;49.578;11.214;2023-10-19T23:42:39;23.15;;;15.35;;
23242;SDS011;11790;49.578;11.214;2023-10-19T23:47:39;24.15;;;15.88;;
23242;SDS011;11790;49.578;11.214;2023-10-19T23:52:40;21.33;;;14.27;;
23242;SDS011;11790;49.578;11.214;2023-10-19T23:57:40;23.35;;;14.73;;
